Time;durP1;ratioP1;P1;durP2;ratioP2;P2;SDS_P1;SDS_P2;PMS_P1;PMS_P2;Temp;Humidity;BMP_temperature;BMP_pressure;BME280_temperature;BME280_humidity;BME280_pressure;Samples;Min_cycle;Max_cycle;Signal;HPM_P1;HPM_P2
2021/10/14 00:00:13;;;;;;;5.53;2.00;;;13.40;55.10;;;;;;6229759;28;20100;-76
2021/10/14 00:03:32;;;;;;;3.92;2.38;;;13.40;55.20;;;;;;6218784;28;20049;-76
2021/10/14 00:06:52;;;;;;;3.80;2.00;;;13.30;55.30;;;;;;6217388;28;20076;-76
2021/10/14 00:09:53;;;;;;;7.72;2.20;;;13.20;55.40;;;;;;6200469;28;20099;-76
2021/10/14 00:12:54;;;;;;;6.60;1.95;;;13.20;55.50;;;;;;6199375;28;20042;-76
2021/10/14 00:15:55;;;;;;;4.75;2.55;;;13.20;55.70;;;;;;6199311;28;20370;-76
2021/10/14 00:18:56;;;;;;;4.57;2.50;;;13.10;55.70;;;;;;6214268;28;20069;-76
2021/10/14 00:21:57;;;;;;;5.10;2.70;;;13.20;56.50;;;;;;6215997;28;20034;-76
2021/10/14 00:24:58;;;;;;;3.53;2.00;;;13.10;55.90;;;;;;6216579;28;20447;-77
2021/10/14 00:27:59;;;;;;;5.20;2.00;;;13.10;56.10;;;;;;6215671;28;20080;-77
2021/10/14 00:31:00;;;;;;;5.55;1.98;;;13.00;56.10;;;;;;6214244;28;20116;-77
2021/10/14 00:34:01;;;;;;;9.38;2.40;;;13.00;56.20;;;;;;6214222;28;20048;-76
2021/10/14 00:37:02;;;;;;;6.38;2.30;;;13.00;56.30;;;;;;6217316;28;20042;-77
2021/10/14 00:40:05;;;;;;;5.40;1.90;;;12.90;56.30;;;;;;6213794;28;20034;-77
2021/10/14 00:43:06;;;;;;;3.65;2.13;;;12.90;56.30;;;;;;6213602;28;20034;-77
2021/10/14 00:46:15;;;;;;;5.03;1.95;;;12.90;56.40;;;;;;6199613;28;20084;-77
2021/10/14 00:49:17;;;;;;;4.78;1.90;;;12.90;56.50;;;;;;6224002;28;20129;-76
2021/10/14 00:52:19;;;;;;;5.45;2.35;;;12.90;56.50;;;;;;6216978;28;20177;-76
2021/10/14 00:55:21;;;;;;;5.38;2.90;;;12.90;56.50;;;;;;6219787;28;20037;-76
2021/10/14 00:58:48;;;;;;;11.35;3.25;;;12.80;56.40;;;;;;6216932;28;20061;-76
2021/10/14 01:01:49;;;;;;;7.18;2.65;;;12.80;56.50;;;;;;6219672;28;20042;-76
2021/10/14 01:04:51;;;;;;;6.22;2.47;;;12.80;56.50;;;;;;6218998;28;20042;-77
2021/10/14 01:07:52;;;;;;;4.97;2.42;;;12.80;56.50;;;;;;6217340;28;20042;-77
2021/10/14 01:10:53;;;;;;;4.10;2.20;;;12.80;56.50;;;;;;6216705;28;20048;-76
2021/10/14 01:13:56;;;;;;;3.15;2.00;;;12.80;56.70;;;;;;6217728;28;20041;-77
2021/10/14 01:16:58;;;;;;;7.18;2.33;;;12.80;56.70;;;;;;6220000;28;20057;-78
2021/10/14 01:19:59;;;;;;;4.53;2.38;;;12.80;56.70;;;;;;6217329;28;20064;-76
2021/10/14 01:23:00;;;;;;;3.22;1.88;;;12.90;56.70;;;;;;6216703;28;20030;-76
2021/10/14 01:26:02;;;;;;;5.95;2.10;;;12.90;56.70;;;;;;6211649;28;20065;-76
2021/10/14 01:29:03;;;;;;;3.47;1.90;;;12.80;56.70;;;;;;6217054;28;20030;-77
2021/10/14 01:32:04;;;;;;;3.00;1.83;;;12.80;56.70;;;;;;6217003;28;20065;-76
2021/10/14 01:35:06;;;;;;;4.53;2.30;;;12.80;56.80;;;;;;6226686;28;20034;-76
2021/10/14 01:38:07;;;;;;;3.60;2.30;;;12.80;56.80;;;;;;6216780;28;20192;-76
2021/10/14 01:41:08;;;;;;;6.60;2.28;;;12.80;56.80;;;;;;6211092;28;20034;-76
2021/10/14 01:44:09;;;;;;;3.33;1.90;;;12.80;56.90;;;;;;6214490;28;20030;-76
2021/10/14 01:47:10;;;;;;;6.28;2.13;;;12.80;56.90;;;;;;6217713;28;20038;-76
2021/10/14 01:50:12;;;;;;;4.95;2.35;;;12.70;57.00;;;;;;6198662;28;20041;-77
2021/10/14 01:53:13;;;;;;;6.03;2.20;;;12.70;57.10;;;;;;6221745;28;20033;-77
2021/10/14 01:56:14;;;;;;;7.25;2.35;;;12.70;57.20;;;;;;6219543;28;20473;-77
2021/10/14 01:59:15;;;;;;;4.15;2.35;;;12.70;57.50;;;;;;6216653;28;20038;-77
2021/10/14 02:02:16;;;;;;;5.57;2.55;;;12.60;57.50;;;;;;6203727;28;20049;-77
2021/10/14 02:05:17;;;;;;;3.95;2.30;;;12.60;57.60;;;;;;6220289;28;20034;-77
2021/10/14 02:08:18;;;;;;;5.03;2.40;;;12.60;57.60;;;;;;6217234;28;20505;-77
2021/10/14 02:11:19;;;;;;;3.88;2.35;;;12.60;57.70;;;;;;6203928;28;20049;-77
2021/10/14 02:14:20;;;;;;;4.45;2.80;;;12.60;57.80;;;;;;6217198;28;20528;-77
2021/10/14 02:17:21;;;;;;;6.28;2.20;;;12.60;57.90;;;;;;6225213;28;20048;-78
2021/10/14 02:20:22;;;;;;;8.27;2.67;;;12.60;58.00;;;;;;6209096;28;20034;-78
2021/10/14 02:23:23;;;;;;;5.32;2.63;;;12.60;58.00;;;;;;6219692;28;20030;-77
2021/10/14 02:26:24;;;;;;;7.30;2.75;;;12.60;58.10;;;;;;6219004;28;20355;-78
2021/10/14 02:29:44;;;;;;;4.38;2.70;;;12.60;58.10;;;;;;6216633;28;20058;-76
2021/10/14 02:32:44;;;;;;;4.97;2.33;;;12.50;58.10;;;;;;6233166;28;20151;-77
2021/10/14 02:35:45;;;;;;;16.85;3.00;;;12.60;58.20;;;;;;6218484;28;20083;-77
2021/10/14 02:38:46;;;;;;;4.47;2.65;;;12.60;58.20;;;;;;6219959;28;20463;-77
2021/10/14 02:41:47;;;;;;;6.88;2.70;;;12.50;58.20;;;;;;6217595;28;20044;-77
2021/10/14 02:44:48;;;;;;;5.43;2.50;;;12.50;58.40;;;;;;6218223;28;20029;-77
2021/10/14 02:47:49;;;;;;;9.90;3.25;;;12.50;58.40;;;;;;6221142;28;20038;-77
2021/10/14 02:50:50;;;;;;;5.43;2.65;;;12.50;58.60;;;;;;6234885;28;20129;-77
2021/10/14 02:53:50;;;;;;;4.70;2.50;;;12.50;58.70;;;;;;6219683;28;20041;-77
2021/10/14 02:56:51;;;;;;;3.60;2.20;;;12.50;58.70;;;;;;6203914;28;20042;-77
2021/10/14 02:59:52;;;;;;;6.57;2.47;;;12.40;58.70;;;;;;6216614;28;20030;-77
2021/10/14 03:02:53;;;;;;;5.00;2.80;;;12.40;59.40;;;;;;6218639;28;20025;-78
2021/10/14 03:05:54;;;;;;;4.22;2.65;;;12.30;58.90;;;;;;6217219;28;20030;-77
2021/10/14 03:08:55;;;;;;;3.38;2.60;;;12.30;59.00;;;;;;6220739;28;20033;-77
2021/10/14 03:11:56;;;;;;;5.00;2.47;;;12.30;59.10;;;;;;6227867;28;20037;-77
2021/10/14 03:14:56;;;;;;;4.63;2.60;;;12.30;59.10;;;;;;6219798;28;20062;-77
2021/10/14 03:17:57;;;;;;;6.35;2.25;;;12.20;59.10;;;;;;6228048;28;20112;-78
2021/10/14 03:20:58;;;;;;;4.18;2.35;;;12.20;59.10;;;;;;6215928;28;20030;-77
2021/10/14 03:23:59;;;;;;;7.78;2.05;;;12.20;59.00;;;;;;6218385;28;20391;-78
2021/10/14 03:27:00;;;;;;;3.50;2.10;;;12.20;59.00;;;;;;6217627;28;20041;-78
2021/10/14 03:30:01;;;;;;;7.53;2.00;;;12.20;59.00;;;;;;6220602;28;20121;-78
2021/10/14 03:33:02;;;;;;;2.95;1.95;;;12.20;59.10;;;;;;6217108;28;20039;-77
2021/10/14 03:36:04;;;;;;;4.00;2.20;;;12.20;59.10;;;;;;6219565;28;20037;-77
2021/10/14 03:39:05;;;;;;;4.13;2.35;;;12.10;59.10;;;;;;6216877;28;20041;-76
2021/10/14 03:42:06;;;;;;;7.18;2.40;;;12.10;59.10;;;;;;6214376;28;20459;-77
2021/10/14 03:45:08;;;;;;;4.07;2.10;;;12.10;59.20;;;;;;6205263;28;20092;-77
2021/10/14 03:48:09;;;;;;;4.70;2.15;;;12.10;59.30;;;;;;6218639;28;20045;-77
2021/10/14 03:51:10;;;;;;;3.25;2.13;;;12.10;59.30;;;;;;6221122;28;20390;-77
2021/10/14 03:54:30;;;;;;;4.88;2.28;;;12.10;59.90;;;;;;6219423;28;20037;-77
2021/10/14 03:57:49;;;;;;;4.25;2.13;;;12.00;59.40;;;;;;6213366;28;20030;-77
2021/10/14 04:00:50;;;;;;;4.20;2.28;;;12.00;59.40;;;;;;6199447;28;20049;-76
2021/10/14 04:03:51;;;;;;;4.32;2.47;;;12.00;59.50;;;;;;6217361;28;20100;-77
2021/10/14 04:06:52;;;;;;;3.92;2.13;;;12.00;59.50;;;;;;6211513;28;20034;-77
2021/10/14 04:09:52;;;;;;;4.45;2.10;;;12.00;59.50;;;;;;6215749;28;20057;-77
2021/10/14 04:12:54;;;;;;;3.53;2.05;;;12.00;59.50;;;;;;6213103;28;20061;-77
2021/10/14 04:15:54;;;;;;;4.25;2.28;;;12.00;59.40;;;;;;6197975;28;20049;-77
2021/10/14 04:18:55;;;;;;;4.63;2.35;;;12.00;59.30;;;;;;6213475;28;20486;-77
2021/10/14 04:21:56;;;;;;;9.10;3.53;;;12.00;59.30;;;;;;6196934;28;20030;-76
2021/10/14 04:24:57;;;;;;;7.50;3.58;;;12.00;59.30;;;;;;6212149;28;20030;-76
2021/10/14 04:27:58;;;;;;;6.93;3.08;;;12.10;59.30;;;;;;6215082;28;20378;-76
2021/10/14 04:31:00;;;;;;;4.82;2.50;;;12.00;59.20;;;;;;6214523;28;20034;-77
2021/10/14 04:34:01;;;;;;;5.20;2.30;;;12.00;59.20;;;;;;6211723;28;20105;-78
2021/10/14 04:37:05;;;;;;;6.15;2.55;;;12.00;59.20;;;;;;6212270;28;20034;-77
2021/10/14 04:40:07;;;;;;;3.95;2.30;;;11.90;59.20;;;;;;6208643;28;20091;-77
2021/10/14 04:43:08;;;;;;;19.85;5.20;;;11.90;59.20;;;;;;6213491;28;20030;-76
2021/10/14 04:46:09;;;;;;;9.05;2.72;;;11.90;59.30;;;;;;6216496;28;20057;-74
2021/10/14 04:49:10;;;;;;;5.28;2.22;;;11.90;59.30;;;;;;6216601;28;20042;-75
2021/10/14 04:52:11;;;;;;;4.50;2.70;;;11.90;59.30;;;;;;6226795;28;20042;-76
2021/10/14 04:55:12;;;;;;;3.92;2.13;;;11.90;59.30;;;;;;6241658;28;20046;-76
2021/10/14 04:58:13;;;;;;;5.88;2.17;;;11.90;59.30;;;;;;6216479;28;20042;-77
2021/10/14 05:01:14;;;;;;;5.50;2.00;;;11.90;59.30;;;;;;6208118;28;20064;-76
2021/10/14 05:04:15;;;;;;;4.97;2.70;;;11.90;59.40;;;;;;6213631;28;20050;-76
2021/10/14 05:07:34;;;;;;;8.07;2.45;;;11.90;59.40;;;;;;6208043;28;20066;-76
2021/10/14 05:10:54;;;;;;;18.48;4.72;;;11.80;59.50;;;;;;6212624;28;20129;-72
2021/10/14 05:13:55;;;;;;;5.18;2.80;;;11.80;59.60;;;;;;6212810;28;20095;-72
2021/10/14 05:16:56;;;;;;;5.25;2.65;;;11.80;59.80;;;;;;6209809;28;20157;-72
2021/10/14 05:19:56;;;;;;;5.45;2.30;;;11.80;59.80;;;;;;6215701;28;20363;-74
2021/10/14 05:22:58;;;;;;;5.38;2.58;;;11.70;59.90;;;;;;6219112;28;20033;-76
2021/10/14 05:25:59;;;;;;;8.00;3.20;;;11.70;59.90;;;;;;6225908;28;20152;-76
2021/10/14 05:29:00;;;;;;;5.93;2.63;;;11.70;60.00;;;;;;6217790;28;20034;-77
2021/10/14 05:32:01;;;;;;;7.28;2.53;;;11.70;60.10;;;;;;6218033;28;20470;-73
2021/10/14 05:35:03;;;;;;;5.60;2.70;;;11.70;60.30;;;;;;6219359;28;20041;-74
2021/10/14 05:38:06;;;;;;;5.10;2.60;;;11.60;60.30;;;;;;6204141;28;20042;-73
2021/10/14 05:41:07;;;;;;;4.50;2.55;;;11.60;60.30;;;;;;6216229;28;20071;-76
2021/10/14 05:44:08;;;;;;;5.05;2.92;;;11.60;60.40;;;;;;6203773;28;20034;-71
2021/10/14 05:47:09;;;;;;;5.57;2.83;;;11.70;60.50;;;;;;6216943;28;20030;-74
2021/10/14 05:50:10;;;;;;;5.03;2.53;;;11.60;60.60;;;;;;6218945;28;20062;-73
2021/10/14 05:53:11;;;;;;;6.70;3.17;;;11.60;60.70;;;;;;6224220;28;20045;-74
2021/10/14 05:56:12;;;;;;;9.60;3.00;;;11.60;60.70;;;;;;6222571;28;20038;-74
2021/10/14 05:59:13;;;;;;;7.68;3.38;;;11.60;60.80;;;;;;6216206;28;20112;-72
2021/10/14 06:02:32;;;;;;;4.28;2.97;;;11.70;60.80;;;;;;6219551;28;20085;-72
2021/10/14 06:05:52;;;;;;;5.03;2.92;;;11.70;60.80;;;;;;6219405;28;20127;-72
2021/10/14 06:08:53;;;;;;;5.07;3.03;;;11.70;60.80;;;;;;6220891;28;20128;-71
2021/10/14 06:11:53;;;;;;;7.22;3.03;;;11.70;60.80;;;;;;6220385;28;20049;-73
2021/10/14 06:14:54;;;;;;;7.72;3.08;;;11.70;60.50;;;;;;6215249;28;20077;-74
2021/10/14 06:17:55;;;;;;;9.85;3.17;;;11.60;60.50;;;;;;6210687;28;20034;-72
2021/10/14 06:20:56;;;;;;;4.45;2.67;;;11.70;60.70;;;;;;6211554;28;20111;-72
2021/10/14 06:23:59;;;;;;;5.93;3.17;;;11.60;60.70;;;;;;6206189;28;20088;-71
2021/10/14 06:27:01;;;;;;;8.25;2.40;;;11.70;60.70;;;;;;6214339;28;20045;-75
2021/10/14 06:30:02;;;;;;;5.82;3.42;;;11.70;60.60;;;;;;6218270;28;20455;-72
2021/10/14 06:33:06;;;;;;;7.25;3.78;;;11.70;60.60;;;;;;6194398;28;20058;-73
2021/10/14 06:36:08;;;;;;;6.82;3.25;;;11.70;60.60;;;;;;6213620;28;20034;-72
2021/10/14 06:39:09;;;;;;;6.95;2.92;;;11.70;60.50;;;;;;6209568;28;20038;-73
2021/10/14 06:42:09;;;;;;;5.30;3.03;;;11.70;60.50;;;;;;6216249;28;20057;-73
2021/10/14 06:45:10;;;;;;;4.88;3.15;;;11.70;60.50;;;;;;6224354;28;20108;-72
2021/10/14 06:48:12;;;;;;;10.70;3.35;;;11.60;60.30;;;;;;6213839;28;20038;-73
2021/10/14 06:51:12;;;;;;;8.63;4.20;;;11.80;60.40;;;;;;6206005;28;20140;-73
2021/10/14 06:54:14;;;;;;;12.43;4.60;;;11.80;60.20;;;;;;6213973;28;20034;-73
2021/10/14 06:57:16;;;;;;;8.60;3.55;;;11.90;60.20;;;;;;6213286;28;20096;-73
2021/10/14 07:00:22;;;;;;;9.23;4.13;;;11.90;60.10;;;;;;6196434;28;20416;-73
2021/10/14 07:03:23;;;;;;;6.40;3.55;;;11.90;59.90;;;;;;6215995;28;20087;-73
2021/10/14 07:06:24;;;;;;;8.70;3.13;;;12.00;59.90;;;;;;6213923;28;20030;-71
2021/10/14 07:09:25;;;;;;;11.27;3.95;;;12.10;59.80;;;;;;6218900;28;20116;-72
2021/10/14 07:12:29;;;;;;;9.57;3.92;;;12.10;59.80;;;;;;6216250;28;20038;-72
2021/10/14 07:15:31;;;;;;;7.32;3.72;;;12.20;59.80;;;;;;6224069;28;20466;-73
2021/10/14 07:18:31;;;;;;;12.60;3.78;;;12.30;59.70;;;;;;6216014;28;20041;-74
2021/10/14 07:21:32;;;;;;;12.63;3.88;;;12.30;59.60;;;;;;6216587;28;20046;-72
2021/10/14 07:24:33;;;;;;;7.32;3.47;;;12.40;59.50;;;;;;6199415;28;20120;-72
2021/10/14 07:27:34;;;;;;;8.02;3.38;;;12.50;60.00;;;;;;6212229;28;20053;-75
2021/10/14 07:30:37;;;;;;;11.38;3.50;;;12.60;59.40;;;;;;6217508;28;20129;-72
2021/10/14 07:33:38;;;;;;;7.75;3.97;;;12.60;59.20;;;;;;6216975;28;20125;-75
2021/10/14 07:36:39;;;;;;;20.35;7.35;;;12.70;59.20;;;;;;6218067;28;20414;-72
2021/10/14 07:39:40;;;;;;;7.75;3.67;;;12.70;59.00;;;;;;6217675;28;20045;-71
2021/10/14 07:42:41;;;;;;;9.48;3.20;;;12.80;59.00;;;;;;6197232;28;20464;-72
2021/10/14 07:45:43;;;;;;;9.73;3.83;;;12.80;58.90;;;;;;6215764;28;20041;-73
2021/10/14 07:48:44;;;;;;;12.10;3.92;;;12.90;58.80;;;;;;6215826;28;20034;-72
2021/10/14 07:51:45;;;;;;;12.23;3.60;;;12.90;58.70;;;;;;6212531;28;20378;-73
2021/10/14 07:54:46;;;;;;;6.03;3.40;;;13.00;58.70;;;;;;6216499;28;20068;-72
2021/10/14 07:57:47;;;;;;;7.72;3.95;;;13.00;58.60;;;;;;6214859;28;20030;-73
2021/10/14 08:00:48;;;;;;;8.30;3.67;;;13.00;58.50;;;;;;6212449;28;20148;-73
2021/10/14 08:03:49;;;;;;;4.93;3.50;;;13.10;58.40;;;;;;6215917;28;20061;-74
2021/10/14 08:06:50;;;;;;;6.10;3.65;;;13.20;58.30;;;;;;6214239;28;20058;-72
2021/10/14 08:09:52;;;;;;;10.18;3.97;;;13.30;58.10;;;;;;6210964;28;20042;-72
2021/10/14 08:12:53;;;;;;;4.05;3.03;;;13.50;57.80;;;;;;6216618;28;20116;-72
2021/10/14 08:15:54;;;;;;;7.30;3.42;;;13.60;57.60;;;;;;6215916;28;20057;-73
2021/10/14 08:18:55;;;;;;;15.40;3.83;;;13.70;57.30;;;;;;6214056;28;20033;-72
2021/10/14 08:21:56;;;;;;;8.65;3.65;;;13.80;56.80;;;;;;6197634;28;20030;-72
2021/10/14 08:24:59;;;;;;;7.60;3.70;;;13.90;56.60;;;;;;6215543;28;20045;-72
2021/10/14 08:27:59;;;;;;;9.27;3.88;;;14.00;56.30;;;;;;6210483;28;20129;-73
2021/10/14 08:31:00;;;;;;;6.50;3.03;;;14.10;56.10;;;;;;6215980;28;20308;-73
2021/10/14 08:34:02;;;;;;;6.68;3.30;;;14.20;55.90;;;;;;6216647;28;20026;-73
2021/10/14 08:37:05;;;;;;;10.57;3.70;;;14.30;55.70;;;;;;6199355;28;20320;-72
2021/10/14 08:40:08;;;;;;;5.50;3.10;;;14.30;55.40;;;;;;6212676;28;20030;-72
2021/10/14 08:43:14;;;;;;;13.23;3.58;;;14.40;55.40;;;;;;6217999;28;20072;-72
2021/10/14 08:46:15;;;;;;;11.10;4.38;;;14.50;55.20;;;;;;6211472;28;20090;-72
2021/10/14 08:49:16;;;;;;;10.07;3.63;;;14.60;55.00;;;;;;6218381;28;20042;-73
2021/10/14 08:52:17;;;;;;;7.45;4.00;;;14.60;54.90;;;;;;6209128;28;20462;-73
2021/10/14 08:55:18;;;;;;;18.30;7.47;;;14.60;54.90;;;;;;6231662;28;20041;-72
2021/10/14 08:58:19;;;;;;;30.75;10.48;;;14.70;55.00;;;;;;6213517;28;20046;-72
2021/10/14 09:01:20;;;;;;;11.23;4.97;;;14.80;55.00;;;;;;6213059;28;20045;-72
2021/10/14 09:04:22;;;;;;;18.30;7.10;;;14.90;54.90;;;;;;6214097;28;20438;-72
2021/10/14 09:07:25;;;;;;;11.95;6.15;;;15.00;54.40;;;;;;6199152;28;20121;-72
2021/10/14 09:10:32;;;;;;;34.13;12.23;;;15.00;54.30;;;;;;6211830;28;20122;-72
2021/10/14 09:13:33;;;;;;;32.40;12.70;;;15.00;54.00;;;;;;6218658;28;20045;-72
2021/10/14 09:16:41;;;;;;;12.48;5.30;;;15.10;53.90;;;;;;6217934;28;20030;-73
2021/10/14 09:19:42;;;;;;;10.48;4.20;;;15.20;53.90;;;;;;6231136;28;20121;-72
2021/10/14 09:23:11;;;;;;;13.00;5.18;;;15.20;53.80;;;;;;6201488;28;20041;-73
2021/10/14 09:26:12;;;;;;;10.80;4.47;;;15.30;53.60;;;;;;6217616;28;20410;-72
2021/10/14 09:29:13;;;;;;;11.93;6.47;;;15.40;53.20;;;;;;6216563;28;20045;-72
2021/10/14 09:32:15;;;;;;;15.15;5.40;;;15.40;53.10;;;;;;6222674;28;20038;-72
2021/10/14 09:35:24;;;;;;;12.32;5.15;;;15.50;52.70;;;;;;6217303;28;20125;-72
2021/10/14 09:38:34;;;;;;;13.30;4.93;;;15.50;52.80;;;;;;6198377;28;20470;-72
2021/10/14 09:41:40;;;;;;;10.00;3.85;;;15.60;52.80;;;;;;6216246;28;20064;-71
2021/10/14 09:44:50;;;;;;;10.20;3.92;;;15.70;52.50;;;;;;6213680;28;20304;-72
2021/10/14 09:48:03;;;;;;;9.23;3.65;;;15.80;52.40;;;;;;6216037;28;20030;-71
2021/10/14 09:51:04;;;;;;;10.73;4.30;;;15.90;52.10;;;;;;6198855;28;20096;-72
2021/10/14 09:54:05;;;;;;;29.13;10.30;;;16.00;51.90;;;;;;6216316;28;20037;-72
2021/10/14 09:57:06;;;;;;;9.13;4.43;;;16.10;51.90;;;;;;6214081;28;20034;-72
2021/10/14 10:00:08;;;;;;;6.05;3.72;;;16.20;51.50;;;;;;6203433;28;20112;-72
2021/10/14 10:03:27;;;;;;;9.23;5.10;;;16.30;50.90;;;;;;6218393;28;20033;-71
2021/10/14 10:06:33;;;;;;;13.32;6.43;;;16.40;50.70;;;;;;6211828;28;20121;-72
2021/10/14 10:09:39;;;;;;;5.45;3.28;;;16.50;50.30;;;;;;6220172;28;20447;-73
2021/10/14 10:12:40;;;;;;;15.52;6.85;;;16.80;49.80;;;;;;6218553;28;20382;-73
2021/10/14 10:15:44;;;;;;;6.88;3.40;;;17.10;48.40;;;;;;6218550;28;20073;-72
2021/10/14 10:18:46;;;;;;;16.52;7.07;;;17.30;48.00;;;;;;6215941;28;20044;-73
2021/10/14 10:21:47;;;;;;;8.20;3.72;;;17.50;47.80;;;;;;6218294;28;20037;-73
2021/10/14 10:24:48;;;;;;;8.63;3.45;;;17.70;47.50;;;;;;6219668;28;20045;-72
2021/10/14 10:27:50;;;;;;;5.05;2.55;;;18.00;47.20;;;;;;6214452;28;20038;-72
2021/10/14 10:30:54;;;;;;;14.00;2.92;;;18.20;46.50;;;;;;6219661;28;20034;-72
2021/10/14 10:34:00;;;;;;;6.53;3.35;;;18.40;46.10;;;;;;6219205;28;20030;-72
2021/10/14 10:37:09;;;;;;;5.90;2.75;;;18.60;45.50;;;;;;6205362;28;20030;-72
2021/10/14 10:40:23;;;;;;;6.57;3.85;;;18.90;45.00;;;;;;6217610;28;20055;-73
2021/10/14 10:43:29;;;;;;;10.00;5.25;;;19.10;44.20;;;;;;6219245;28;20034;-73
2021/10/14 10:46:30;;;;;;;14.18;7.38;;;19.40;43.20;;;;;;6216996;28;20324;-73
2021/10/14 10:49:31;;;;;;;10.75;4.28;;;19.50;41.80;;;;;;6233675;28;20038;-73
2021/10/14 10:52:37;;;;;;;8.25;4.45;;;19.60;42.00;;;;;;6218821;28;20049;-72
2021/10/14 10:55:59;;;;;;;6.60;3.47;;;19.70;42.00;;;;;;6219536;28;20367;-72
2021/10/14 10:59:02;;;;;;;5.85;2.85;;;19.80;41.90;;;;;;6229391;28;20120;-72
2021/10/14 11:02:03;;;;;;;5.10;3.13;;;20.00;42.20;;;;;;6217240;28;20038;-73
2021/10/14 11:05:05;;;;;;;5.50;3.00;;;20.20;41.60;;;;;;6219143;28;20466;-72
2021/10/14 11:08:10;;;;;;;4.30;2.80;;;20.50;41.00;;;;;;6216789;28;20057;-72
2021/10/14 11:11:18;;;;;;;6.30;2.78;;;20.70;40.10;;;;;;6221718;28;20030;-73
2021/10/14 11:14:19;;;;;;;8.52;3.40;;;20.80;39.60;;;;;;6221370;28;20030;-72
2021/10/14 11:17:23;;;;;;;5.70;2.70;;;20.90;39.00;;;;;;6219878;28;20108;-73
2021/10/14 11:20:24;;;;;;;4.97;2.42;;;21.00;38.80;;;;;;6205472;28;20328;-72
2021/10/14 11:23:30;;;;;;;5.22;2.47;;;21.20;38.40;;;;;;6233836;28;20038;-72
2021/10/14 11:26:37;;;;;;;3.85;2.33;;;21.40;37.60;;;;;;6234341;28;20037;-73
2021/10/14 11:29:38;;;;;;;3.83;2.13;;;21.60;37.30;;;;;;6220735;28;20375;-73
2021/10/14 11:32:46;;;;;;;4.25;2.08;;;21.90;36.80;;;;;;6220279;28;20045;-73
2021/10/14 11:35:55;;;;;;;;;;;22.20;36.50;;;;;;6219542;28;20046;-73
2021/10/14 11:38:59;;;;;;;3.33;2.20;;;22.80;35.90;;;;;;6218450;28;20004;-73
2021/10/14 11:42:02;;;;;;;5.07;2.53;;;23.30;35.10;;;;;;6222297;28;20057;-73
2021/10/14 11:45:04;;;;;;;4.05;2.60;;;23.80;34.10;;;;;;6219238;28;20038;-73
2021/10/14 11:48:05;;;;;;;8.80;2.53;;;24.00;33.80;;;;;;6218631;28;20041;-73
2021/10/14 11:51:09;;;;;;;6.55;3.13;;;24.30;33.40;;;;;;6216835;28;20042;-72
2021/10/14 11:54:12;;;;;;;7.22;2.90;;;24.70;32.70;;;;;;6220812;28;20093;-73
2021/10/14 11:57:13;;;;;;;5.68;3.38;;;25.00;32.40;;;;;;6217754;28;20065;-73
2021/10/14 12:00:14;;;;;;;5.32;2.80;;;25.30;32.20;;;;;;6215279;28;20117;-73
2021/10/14 12:03:17;;;;;;;3.47;2.40;;;25.60;31.60;;;;;;6221462;28;20030;-72
2021/10/14 12:06:20;;;;;;;5.13;2.65;;;25.90;31.30;;;;;;6218713;28;20034;-72
2021/10/14 12:09:22;;;;;;;6.85;2.80;;;26.10;30.90;;;;;;6222426;28;20116;-73
2021/10/14 12:12:28;;;;;;;4.22;2.40;;;26.30;30.20;;;;;;6224544;28;20125;-73
2021/10/14 12:15:29;;;;;;;3.95;2.88;;;26.60;29.80;;;;;;6233292;28;20279;-73
2021/10/14 12:18:30;;;;;;;4.38;2.42;;;26.80;29.40;;;;;;6222016;28;20030;-74
2021/10/14 12:21:34;;;;;;;5.38;2.83;;;27.00;29.20;;;;;;6218412;28;20486;-72
2021/10/14 12:24:50;;;;;;;3.97;2.42;;;27.30;28.70;;;;;;6216086;28;20464;-72
2021/10/14 12:27:55;;;;;;;4.35;2.15;;;27.60;28.30;;;;;;6219092;28;20119;-73
2021/10/14 12:31:08;;;;;;;6.35;2.13;;;28.00;27.90;;;;;;6220230;28;20041;-73
2021/10/14 12:34:10;;;;;;;6.93;2.50;;;27.90;27.50;;;;;;6218598;28;20033;-73
2021/10/14 12:37:13;;;;;;;3.75;2.55;;;27.20;28.00;;;;;;6220946;28;20442;-72
2021/10/14 12:40:25;;;;;;;7.97;2.38;;;26.30;28.80;;;;;;6220478;28;20053;-74
2021/10/14 12:43:32;;;;;;;4.78;2.70;;;25.50;29.50;;;;;;6217329;28;20430;-73
2021/10/14 12:50:15;;;;;;;6.15;2.70;;;24.00;31.00;;;;;;6216137;28;20034;-73
2021/10/14 12:53:16;;;;;;;;;;;23.40;32.30;;;;;;6234271;28;20129;-72
2021/10/14 12:56:18;;;;;;;5.72;3.25;;;22.80;33.10;;;;;;6218712;28;20263;-73
2021/10/14 12:59:20;;;;;;;9.30;2.72;;;22.40;34.00;;;;;;6219944;28;20045;-73
2021/10/14 13:02:21;;;;;;;5.65;2.80;;;22.00;34.80;;;;;;6219576;28;20188;-73
2021/10/14 13:05:22;;;;;;;5.55;2.97;;;21.60;35.40;;;;;;6218488;28;20121;-73
2021/10/14 13:08:24;;;;;;;4.18;2.33;;;21.30;36.10;;;;;;6218754;28;20124;-74
2021/10/14 13:11:32;;;;;;;7.70;2.83;;;21.00;36.80;;;;;;6217452;28;20034;-73
2021/10/14 13:14:37;;;;;;;5.90;2.80;;;20.80;37.50;;;;;;6216024;28;20450;-73
2021/10/14 13:17:39;;;;;;;8.25;2.67;;;20.60;37.90;;;;;;6216921;28;20041;-73
2021/10/14 13:20:40;;;;;;;5.28;2.80;;;20.40;38.20;;;;;;6216700;28;20045;-73
2021/10/14 13:23:41;;;;;;;10.98;2.90;;;20.50;38.30;;;;;;6216451;28;20097;-72
2021/10/14 13:26:42;;;;;;;6.00;3.15;;;20.40;38.70;;;;;;6216947;28;20126;-73
2021/10/14 13:29:43;;;;;;;4.65;2.65;;;20.30;38.80;;;;;;6216909;28;20038;-73
2021/10/14 13:32:45;;;;;;;3.63;2.42;;;20.30;39.20;;;;;;6216400;28;20140;-73
2021/10/14 13:35:47;;;;;;;6.10;2.65;;;20.20;39.30;;;;;;6216985;28;20038;-73
2021/10/14 13:38:53;;;;;;;4.30;2.78;;;20.20;39.50;;;;;;6201088;28;20044;-73
2021/10/14 13:42:00;;;;;;;5.63;2.58;;;20.10;39.60;;;;;;6218297;28;20043;-73
2021/10/14 13:45:02;;;;;;;4.88;2.45;;;20.10;40.40;;;;;;6221177;28;20130;-73
2021/10/14 13:48:03;;;;;;;4.43;2.40;;;20.00;40.00;;;;;;6219094;28;20388;-73
2021/10/14 13:51:04;;;;;;;4.90;2.60;;;20.10;40.10;;;;;;6231289;28;20471;-72
2021/10/14 13:54:07;;;;;;;3.60;2.33;;;20.00;40.10;;;;;;6222420;28;20041;-72
2021/10/14 13:57:08;;;;;;;4.28;2.35;;;20.10;40.30;;;;;;6220699;28;20033;-73
2021/10/14 14:00:10;;;;;;;4.00;2.20;;;20.00;40.30;;;;;;6216190;28;20375;-73
2021/10/14 14:03:12;;;;;;;7.20;2.83;;;20.00;40.40;;;;;;6213246;28;20036;-73
2021/10/14 14:06:14;;;;;;;6.00;2.30;;;20.00;40.60;;;;;;6233119;28;20049;-73
2021/10/14 14:09:15;;;;;;;4.70;2.42;;;19.90;40.60;;;;;;6222210;28;20519;-72
2021/10/14 14:12:17;;;;;;;7.15;2.53;;;19.80;40.80;;;;;;6223460;28;20037;-72
2021/10/14 14:15:18;;;;;;;4.38;2.63;;;19.80;40.90;;;;;;6219502;28;20061;-72
2021/10/14 14:18:19;;;;;;;8.68;2.55;;;19.80;41.00;;;;;;6222967;28;20038;-73
2021/10/14 14:21:20;;;;;;;4.30;2.33;;;19.80;41.00;;;;;;6219509;28;20049;-73
2021/10/14 14:24:21;;;;;;;4.32;2.40;;;19.80;40.90;;;;;;6221420;28;20038;-73
2021/10/14 14:27:22;;;;;;;5.05;2.30;;;19.90;41.00;;;;;;6218160;28;20046;-73
2021/10/14 14:30:24;;;;;;;5.57;3.38;;;19.90;40.80;;;;;;6206477;28;20085;-72
2021/10/14 14:33:25;;;;;;;4.07;2.33;;;19.90;40.80;;;;;;6232054;28;20416;-73
2021/10/14 14:36:28;;;;;;;8.68;2.30;;;19.90;40.70;;;;;;6223216;28;20034;-72
2021/10/14 14:39:29;;;;;;;4.10;1.77;;;19.80;40.60;;;;;;6217832;28;20127;-73
2021/10/14 14:42:30;;;;;;;4.38;1.98;;;19.80;40.60;;;;;;6202244;28;20037;-72
2021/10/14 14:45:31;;;;;;;4.40;2.00;;;19.80;40.30;;;;;;6219556;28;20407;-72
2021/10/14 14:48:32;;;;;;;3.15;1.65;;;19.70;40.30;;;;;;6193457;28;20442;-72
2021/10/14 14:51:33;;;;;;;3.03;2.05;;;19.70;40.60;;;;;;6223434;28;20046;-73
2021/10/14 14:54:34;;;;;;;7.57;2.25;;;19.70;40.70;;;;;;6214397;28;20026;-73
2021/10/14 14:57:35;;;;;;;7.88;1.83;;;19.70;40.70;;;;;;6221536;28;20045;-72
2021/10/14 15:00:37;;;;;;;3.53;2.00;;;19.70;40.80;;;;;;6215371;28;20044;-73
2021/10/14 15:03:42;;;;;;;5.55;2.20;;;19.60;40.70;;;;;;6221831;28;20543;-74
2021/10/14 15:06:44;;;;;;;3.20;1.73;;;19.60;40.90;;;;;;6202691;28;20062;-73
2021/10/14 15:09:45;;;;;;;7.05;1.73;;;19.60;40.90;;;;;;6222148;28;20026;-73
2021/10/14 15:12:46;;;;;;;5.18;2.05;;;19.60;41.00;;;;;;6223794;28;20038;-73
2021/10/14 15:15:46;;;;;;;4.00;2.20;;;19.50;40.90;;;;;;6221933;28;20033;-72
2021/10/14 15:18:48;;;;;;;5.20;2.20;;;19.50;41.00;;;;;;6222980;28;20056;-73
2021/10/14 15:21:49;;;;;;;3.85;1.92;;;19.50;41.10;;;;;;6217211;28;20041;-72
2021/10/14 15:24:50;;;;;;;3.50;2.05;;;19.40;41.20;;;;;;6219656;28;20455;-72
2021/10/14 15:27:50;;;;;;;3.67;1.90;;;19.50;41.20;;;;;;6219724;28;20038;-72
2021/10/14 15:30:51;;;;;;;4.05;1.85;;;19.50;41.20;;;;;;6224129;28;20030;-72
2021/10/14 15:33:52;;;;;;;4.47;1.88;;;19.50;41.20;;;;;;6218194;28;20376;-72
2021/10/14 15:36:53;;;;;;;5.15;2.35;;;19.40;41.20;;;;;;6221560;28;20068;-72
2021/10/14 15:39:55;;;;;;;3.78;1.77;;;19.40;41.30;;;;;;6218138;28;20072;-71
2021/10/14 15:42:55;;;;;;;7.15;2.08;;;19.30;41.40;;;;;;6219333;28;20034;-73
2021/10/14 15:45:56;;;;;;;4.05;2.22;;;19.30;41.60;;;;;;6218367;28;20339;-72
2021/10/14 15:48:58;;;;;;;5.68;2.47;;;19.30;41.60;;;;;;6212046;28;20050;-74
2021/10/14 15:51:59;;;;;;;4.78;2.45;;;19.30;41.80;;;;;;6213479;28;20038;-73